Terminal Aerodrome Forecast
Issued by NWS Knoxville/Tri Cities, TN

Home | Current Version | Previous Version | Text Only | Print | Product List | Glossary On
Versions: 1 2 3 4 5 6 7 8 9 10 11 12 13 14 15 16 17 18 19 20 21 22 23 24 25 26 27 28 29 30 31 32 33 34 35
000
FTUS44 KMRX 202320
TAFTYS
TAF
KTYS 202320Z 2100/2124 25005KT P6SM SCT040 BKN100
     FM210200 24005KT P6SM SKC
     FM211400 26008KT P6SM SCT040
     FM211700 30010KT P6SM BKN050=

USA.gov is the U.S. government's official web portal to all federal, state and local government web resources and services.